createdAt,value
2019-05-29T00:01:41.409Z,1.33
2019-05-29T00:04:08.754Z,1.47
2019-05-29T00:06:36.033Z,1.50
2019-05-29T00:09:03.750Z,1.20
2019-05-29T00:11:31.029Z,1.10
2019-05-29T00:13:58.481Z,1.40
2019-05-29T00:16:25.839Z,1.30
2019-05-29T00:18:53.116Z,1.07
2019-05-29T00:21:20.498Z,1.30
2019-05-29T00:23:47.764Z,1.10
2019-05-29T00:26:15.050Z,1.10
2019-05-29T00:28:42.320Z,1.30
2019-05-29T00:31:09.909Z,1.43
2019-05-29T00:33:37.345Z,1.10
2019-05-29T00:36:06.085Z,1.57
2019-05-29T00:38:33.532Z,1.67
2019-05-29T00:41:00.798Z,1.20
2019-05-29T00:43:28.084Z,1.60
2019-05-29T00:45:55.429Z,1.40
2019-05-29T00:48:22.808Z,1.80
2019-05-29T00:50:50.073Z,1.70
2019-05-29T00:53:18.344Z,1.70
2019-05-29T00:55:45.776Z,1.67
2019-05-29T00:58:13.045Z,1.60
2019-05-29T01:00:40.313Z,1.60
2019-05-29T01:03:07.621Z,1.60
2019-05-29T01:05:34.953Z,1.83
2019-05-29T01:08:02.380Z,1.53
2019-05-29T01:10:29.904Z,1.63
2019-05-29T01:12:57.172Z,1.57
2019-05-29T01:15:24.516Z,1.80
2019-05-29T01:17:51.885Z,1.77
2019-05-29T01:20:20.002Z,2.10
2019-05-29T01:22:47.368Z,1.47
2019-05-29T01:25:14.837Z,1.80
2019-05-29T01:27:42.187Z,1.97
2019-05-29T01:30:10.478Z,1.80
2019-05-29T01:32:37.825Z,1.73
2019-05-29T01:35:06.155Z,1.80
2019-05-29T01:37:33.425Z,2.00
2019-05-29T01:40:00.737Z,1.87
2019-05-29T01:42:28.078Z,1.47
2019-05-29T01:45:07.183Z,1.30
2019-05-29T01:47:24.449Z,1.20
2019-05-29T01:49:51.794Z,1.57
2019-05-29T01:52:19.678Z,1.30
2019-05-29T01:54:47.033Z,1.57
2019-05-29T01:57:15.677Z,1.13
2019-05-29T01:59:43.042Z,1.30
2019-05-29T02:02:10.349Z,1.33
2019-05-29T02:04:37.628Z,1.40
2019-05-29T02:07:05.202Z,1.63
2019-05-29T02:09:32.500Z,1.00
2019-05-29T02:11:59.790Z,1.50
2019-05-29T02:14:27.129Z,1.03
2019-05-29T02:16:54.441Z,1.07
2019-05-29T02:19:21.913Z,1.10
2019-05-29T02:21:49.276Z,0.87
2019-05-29T02:24:16.982Z,1.10
2019-05-29T02:26:44.401Z,1.00
2019-05-29T02:29:11.685Z,0.83
2019-05-29T02:31:39.074Z,0.90
2019-05-29T02:34:07.426Z,0.97
2019-05-29T02:36:35.009Z,0.80
2019-05-29T02:39:02.461Z,1.30
2019-05-29T02:41:29.962Z,1.00
2019-05-29T02:43:57.369Z,0.97
2019-05-29T02:46:26.446Z,0.90
2019-05-29T02:48:53.738Z,0.93
2019-05-29T02:51:22.062Z,0.70
2019-05-29T02:53:49.565Z,0.80
2019-05-29T02:56:16.848Z,0.87
2019-05-29T02:58:44.458Z,0.97
2019-05-29T03:01:11.785Z,0.90
2019-05-29T03:03:40.234Z,1.00
2019-05-29T03:06:07.726Z,0.80
2019-05-29T03:08:35.183Z,0.77
2019-05-29T03:11:02.526Z,0.80
2019-05-29T03:13:31.546Z,1.00
2019-05-29T03:16:10.545Z,0.90
2019-05-29T03:18:28.206Z,0.70
2019-05-29T03:20:55.915Z,0.97
2019-05-29T03:23:24.233Z,0.90
2019-05-29T03:25:51.702Z,0.60
2019-05-29T03:28:18.990Z,0.60
2019-05-29T03:30:46.662Z,0.80
2019-05-29T03:33:14.345Z,0.70
2019-05-29T03:35:47.702Z,0.73
2019-05-29T03:38:10.616Z,0.60
2019-05-29T03:40:38.717Z,0.90
2019-05-29T03:43:06.200Z,0.60
2019-05-29T03:45:35.750Z,0.73
2019-05-29T03:48:02.454Z,0.80
2019-05-29T03:50:31.199Z,0.70
2019-05-29T03:52:58.754Z,0.70
2019-05-29T03:55:27.306Z,0.67
2019-05-29T03:57:55.014Z,0.70
2019-05-29T04:00:22.446Z,0.70
2019-05-29T04:02:49.723Z,0.40
2019-05-29T04:05:17.145Z,0.80
2019-05-29T04:07:44.415Z,0.57
2019-05-29T04:10:11.932Z,0.53
2019-05-29T04:12:39.584Z,0.60
2019-05-29T04:15:07.093Z,0.50
2019-05-29T04:17:35.502Z,0.70
2019-05-29T04:20:03.359Z,0.63
2019-05-29T04:22:32.935Z,0.60
2019-05-29T04:25:02.795Z,0.90
2019-05-29T04:27:31.989Z,0.70
2019-05-29T04:30:00.994Z,0.60
2019-05-29T04:32:28.286Z,0.53
2019-05-29T04:34:56.913Z,0.70
2019-05-29T04:37:24.231Z,0.50
2019-05-29T04:39:51.505Z,0.50
2019-05-29T04:42:18.845Z,0.63
2019-05-29T04:44:46.134Z,0.60
2019-05-29T04:47:13.456Z,0.60
2019-05-29T04:49:40.747Z,0.70
2019-05-29T04:52:08.124Z,0.50
2019-05-29T04:54:35.456Z,1.00
2019-05-29T04:57:02.736Z,0.50
2019-05-29T04:59:30.853Z,0.77
2019-05-29T05:01:58.267Z,0.60
2019-05-29T05:04:25.561Z,0.73
2019-05-29T05:06:52.833Z,0.70
2019-05-29T05:09:20.168Z,0.80
2019-05-29T05:11:47.477Z,0.70
2019-05-29T05:14:14.740Z,0.80
2019-05-29T05:16:48.620Z,0.63
2019-05-29T05:19:17.018Z,1.50
2019-05-29T05:21:44.560Z,0.90
2019-05-29T05:24:11.845Z,0.90
2019-05-29T05:26:40.355Z,1.00
2019-05-29T05:29:07.947Z,1.10
2019-05-29T05:31:36.405Z,0.60
2019-05-29T05:34:04.181Z,0.93
2019-05-29T05:36:32.567Z,1.13
2019-05-29T05:39:00.093Z,1.00
2019-05-29T05:41:27.381Z,0.87
2019-05-29T05:43:54.652Z,1.00
2019-05-29T05:46:24.707Z,0.70
2019-05-29T05:48:51.004Z,0.70
2019-05-29T05:51:18.273Z,0.70
2019-05-29T05:53:45.542Z,0.80
2019-05-29T05:56:12.848Z,0.70
2019-05-29T05:58:40.128Z,0.80
2019-05-29T06:01:07.499Z,0.90
2019-05-29T06:03:35.913Z,0.60
2019-05-29T06:06:03.324Z,0.83
2019-05-29T06:08:31.920Z,0.70
2019-05-29T06:10:59.484Z,0.90
2019-05-29T06:13:26.780Z,0.80
2019-05-29T06:15:54.065Z,0.70
2019-05-29T06:18:22.023Z,0.60
2019-05-29T06:20:49.421Z,0.90
2019-05-29T06:23:16.756Z,0.70
2019-05-29T06:25:44.069Z,0.70
2019-05-29T06:28:11.789Z,0.70
2019-05-29T06:30:40.867Z,0.97
2019-05-29T06:33:08.116Z,0.50
2019-05-29T06:35:35.889Z,0.63
2019-05-29T06:38:03.421Z,0.80
2019-05-29T06:40:33.925Z,0.70
2019-05-29T06:43:01.517Z,0.80
2019-05-29T06:45:30.514Z,0.73
2019-05-29T06:47:57.814Z,0.90
2019-05-29T06:50:25.348Z,1.30
2019-05-29T06:52:52.618Z,0.90
2019-05-29T06:55:19.928Z,0.80
2019-05-29T06:57:48.325Z,0.90
2019-05-29T07:00:34.090Z,0.80
2019-05-29T07:02:44.939Z,0.80
2019-05-29T07:05:12.353Z,0.83
2019-05-29T07:07:40.338Z,0.70
2019-05-29T07:10:07.865Z,1.00
2019-05-29T07:12:36.261Z,0.93
2019-05-29T07:15:05.548Z,0.80
2019-05-29T07:17:32.927Z,0.90
2019-05-29T07:20:03.844Z,0.90
2019-05-29T07:22:29.202Z,0.80
2019-05-29T07:24:56.493Z,0.80
2019-05-29T07:27:23.817Z,0.80
2019-05-29T07:29:51.085Z,0.90
2019-05-29T07:32:18.457Z,0.63
2019-05-29T07:35:01.438Z,0.70
2019-05-29T07:37:14.723Z,0.87
2019-05-29T07:39:42.024Z,0.80
2019-05-29T07:42:09.394Z,0.83
2019-05-29T07:44:37.990Z,1.10
2019-05-29T07:47:05.360Z,1.50
2019-05-29T07:49:39.282Z,0.80
2019-05-29T07:52:01.770Z,0.60
2019-05-29T07:54:29.081Z,0.87
2019-05-29T07:56:56.421Z,0.80
2019-05-29T07:59:23.685Z,0.83
2019-05-29T08:01:51.068Z,0.90
2019-05-29T08:04:18.345Z,0.87
2019-05-29T08:06:50.498Z,0.60
2019-05-29T08:09:14.765Z,0.67
2019-05-29T08:11:42.057Z,0.90
2019-05-29T08:14:09.434Z,0.80
2019-05-29T08:16:36.741Z,0.80
2019-05-29T08:19:07.879Z,0.90
2019-05-29T08:21:33.077Z,0.60
2019-05-29T08:24:00.385Z,0.70
2019-05-29T08:26:27.653Z,0.63
2019-05-29T08:28:54.934Z,0.77
2019-05-29T08:31:22.366Z,0.70
2019-05-29T08:33:51.054Z,0.80
2019-05-29T08:36:18.669Z,0.70
2019-05-29T08:38:47.305Z,0.60
2019-05-29T08:41:14.898Z,0.53
2019-05-29T08:43:42.500Z,0.60
2019-05-29T08:46:09.974Z,0.60
2019-05-29T08:48:37.249Z,0.60
2019-05-29T08:51:04.585Z,0.50
2019-05-29T08:53:31.894Z,0.70
2019-05-29T08:55:59.187Z,0.80
2019-05-29T08:58:26.465Z,0.60
2019-05-29T09:00:55.297Z,0.80
2019-05-29T09:03:22.810Z,0.77
2019-05-29T09:06:05.225Z,0.50
2019-05-29T09:08:19.113Z,0.70
2019-05-29T09:10:47.241Z,0.57
2019-05-29T09:13:14.698Z,0.80
2019-05-29T09:15:42.010Z,0.80
2019-05-29T09:18:09.283Z,0.87
2019-05-29T09:21:00.106Z,0.70
2019-05-29T09:23:05.561Z,0.80
2019-05-29T09:25:32.902Z,0.83
2019-05-29T09:28:00.160Z,1.37
2019-05-29T09:30:27.637Z,0.90
2019-05-29T09:32:54.908Z,1.00
2019-05-29T09:35:24.619Z,1.10
2019-05-29T09:37:51.185Z,1.10
2019-05-29T09:40:19.338Z,1.23
2019-05-29T09:42:46.668Z,1.00
2019-05-29T09:45:14.966Z,1.10
2019-05-29T09:47:43.145Z,0.90
2019-05-29T09:50:11.583Z,0.70
2019-05-29T09:52:38.891Z,1.00
2019-05-29T09:55:06.860Z,0.90
2019-05-29T09:57:34.144Z,1.00
2019-05-29T10:00:02.140Z,0.80
2019-05-29T10:02:30.477Z,0.80
2019-05-29T10:04:58.583Z,0.80
2019-05-29T10:07:26.835Z,0.77
2019-05-29T10:09:55.571Z,0.80
2019-05-29T10:12:23.221Z,0.80
2019-05-29T10:14:51.376Z,0.90
2019-05-29T10:17:18.876Z,1.00
2019-05-29T10:19:46.149Z,0.83
2019-05-29T10:22:13.438Z,0.90
2019-05-29T10:24:40.709Z,0.83
2019-05-29T10:27:07.969Z,0.90
2019-05-29T10:29:35.355Z,0.93
2019-05-29T10:32:02.710Z,0.80
2019-05-29T10:34:30.045Z,0.73
2019-05-29T10:36:57.350Z,0.80
2019-05-29T10:39:24.625Z,0.70
2019-05-29T10:41:52.997Z,0.60
2019-05-29T10:44:20.442Z,0.80
2019-05-29T10:46:49.692Z,0.60
2019-05-29T10:49:16.731Z,1.00
2019-05-29T10:52:01.558Z,0.73
2019-05-29T10:54:13.096Z,1.03
2019-05-29T10:56:40.433Z,0.87
2019-05-29T10:59:07.901Z,0.80
2019-05-29T11:04:01.116Z,0.70
2019-05-29T11:06:28.431Z,0.70
2019-05-29T11:08:56.240Z,0.80
2019-05-29T11:11:23.726Z,0.90
2019-05-29T11:13:51.097Z,1.10
2019-05-29T11:16:18.360Z,0.77
2019-05-29T11:18:47.400Z,0.70
2019-05-29T11:21:14.951Z,0.73
2019-05-29T11:23:42.277Z,0.90
2019-05-29T11:26:09.546Z,0.73
2019-05-29T11:28:36.925Z,0.70
2019-05-29T11:31:06.017Z,0.70
2019-05-29T11:33:33.265Z,0.80
2019-05-29T11:36:09.905Z,0.80
2019-05-29T11:38:29.566Z,0.97
2019-05-29T11:41:19.396Z,0.90
2019-05-29T11:43:25.945Z,0.80
2019-05-29T11:45:53.240Z,0.80
2019-05-29T11:48:20.577Z,1.07
2019-05-29T11:50:47.877Z,0.70
2019-05-29T11:53:15.146Z,0.80
2019-05-29T11:55:42.413Z,0.70
2019-05-29T11:58:09.855Z,0.90
2019-05-29T12:00:37.149Z,1.33
2019-05-29T12:03:05.901Z,0.70
2019-05-29T12:05:33.204Z,1.03
2019-05-29T12:08:01.758Z,0.90
2019-05-29T12:10:29.324Z,0.80
2019-05-29T12:12:57.559Z,1.10
2019-05-29T12:15:24.965Z,0.90
2019-05-29T12:18:00.100Z,0.60
2019-05-29T12:20:28.124Z,0.77
2019-05-29T12:23:13.238Z,1.10
2019-05-29T12:25:19.417Z,0.87
2019-05-29T12:27:46.863Z,0.73
2019-05-29T12:30:14.413Z,1.07
2019-05-29T12:32:41.687Z,1.00
2019-05-29T12:35:09.054Z,0.77
2019-05-29T12:37:36.327Z,0.70
2019-05-29T12:40:07.787Z,0.80
2019-05-29T12:42:35.085Z,0.93
2019-05-29T12:45:04.139Z,1.10
2019-05-29T12:47:31.444Z,0.70
2019-05-29T12:50:00.637Z,0.60
2019-05-29T12:52:28.002Z,0.77
2019-05-29T12:54:55.892Z,0.70
2019-05-29T12:57:23.653Z,0.70
2019-05-29T12:59:50.998Z,0.60
2019-05-29T13:02:18.266Z,1.03
2019-05-29T13:05:07.045Z,0.70
2019-05-29T13:07:14.661Z,0.80
2019-05-29T13:09:41.926Z,0.80
2019-05-29T13:12:09.294Z,1.70
2019-05-29T13:14:36.787Z,0.80
2019-05-29T13:17:05.178Z,0.80
2019-05-29T13:19:32.735Z,0.60
2019-05-29T13:22:01.421Z,0.80
2019-05-29T13:24:28.962Z,1.23
2019-05-29T13:26:57.420Z,0.80
2019-05-29T13:29:24.991Z,0.90
2019-05-29T13:31:55.697Z,0.80
2019-05-29T13:34:21.283Z,0.67
2019-05-29T13:36:48.577Z,0.90
2019-05-29T13:39:16.074Z,0.90
2019-05-29T13:41:43.381Z,0.60
2019-05-29T13:44:10.653Z,0.77
2019-05-29T13:46:38.112Z,0.80
2019-05-29T13:49:05.450Z,0.73
2019-05-29T13:51:32.791Z,1.00
2019-05-29T13:54:06.903Z,0.70
2019-05-29T13:56:29.267Z,0.87
2019-05-29T13:58:57.755Z,0.80
2019-05-29T14:01:25.364Z,0.97
2019-05-29T14:03:52.707Z,0.90
2019-05-29T14:06:20.044Z,0.90
2019-05-29T14:08:47.475Z,0.70
2019-05-29T14:11:14.745Z,0.87
2019-05-29T14:13:42.011Z,0.90
2019-05-29T14:16:09.344Z,0.87
2019-05-29T14:18:36.658Z,1.03
2019-05-29T14:21:05.126Z,0.90
2019-05-29T14:23:32.549Z,1.10
2019-05-29T14:26:00.424Z,0.70
2019-05-29T14:28:27.766Z,1.10
2019-05-29T14:30:55.077Z,1.30
2019-05-29T14:33:22.406Z,1.47
2019-05-29T14:35:49.748Z,1.20
2019-05-29T14:38:17.104Z,1.10
2019-05-29T14:40:44.378Z,1.07
2019-05-29T14:43:15.275Z,1.40
2019-05-29T14:45:40.657Z,1.33
2019-05-29T14:48:08.212Z,1.23
2019-05-29T14:50:35.681Z,1.50
2019-05-29T14:53:03.081Z,1.63
2019-05-29T14:55:31.929Z,1.50
2019-05-29T14:57:59.197Z,1.40
2019-05-29T15:00:26.540Z,1.10
2019-05-29T15:02:53.804Z,1.20
2019-05-29T15:05:21.168Z,1.00
2019-05-29T15:07:48.447Z,1.27
2019-05-29T15:10:26.156Z,1.40
2019-05-29T15:12:44.932Z,1.00
2019-05-29T15:15:14.290Z,1.00
2019-05-29T15:17:41.361Z,1.60
2019-05-29T15:20:09.844Z,1.30
2019-05-29T15:22:37.692Z,1.20
2019-05-29T15:25:17.059Z,1.40
2019-05-29T15:27:36.996Z,1.60
2019-05-29T15:30:08.810Z,1.50
2019-05-29T15:32:36.309Z,1.43
2019-05-29T15:35:06.104Z,1.87
2019-05-29T15:37:33.806Z,1.80
2019-05-29T15:40:01.077Z,1.70
2019-05-29T15:42:28.373Z,4.33
2019-05-29T15:44:55.637Z,1.50
2019-05-29T15:47:22.910Z,1.83
2019-05-29T15:49:50.278Z,1.67
2019-05-29T15:52:17.541Z,2.10
2019-05-29T15:54:44.816Z,2.00
2019-05-29T15:57:13.083Z,1.50
2019-05-29T15:59:40.476Z,1.60
2019-05-29T16:02:07.746Z,1.50
2019-05-29T16:04:35.062Z,3.60
2019-05-29T16:07:02.324Z,1.60
2019-05-29T16:09:29.597Z,2.33
2019-05-29T16:11:56.973Z,1.80
2019-05-29T16:14:24.250Z,1.87
2019-05-29T16:16:51.623Z,1.77
2019-05-29T16:19:18.892Z,2.13
2019-05-29T16:21:46.164Z,1.80
2019-05-29T16:24:14.645Z,1.93
2019-05-29T16:26:42.007Z,1.67
2019-05-29T16:29:10.443Z,1.90
2019-05-29T16:31:38.023Z,2.03
2019-05-29T16:34:05.321Z,2.60
2019-05-29T16:36:32.645Z,1.90
2019-05-29T16:39:00.020Z,1.93
2019-05-29T16:41:27.289Z,1.90
2019-05-29T16:43:54.556Z,1.70
2019-05-29T16:46:24.257Z,1.70
2019-05-29T16:48:51.037Z,2.03
2019-05-29T16:51:18.822Z,1.90
2019-05-29T16:53:46.238Z,2.00
2019-05-29T16:56:14.699Z,1.90
2019-05-29T16:58:42.176Z,1.80
2019-05-29T17:01:09.487Z,1.73
2019-05-29T17:03:36.759Z,1.80
2019-05-29T17:06:04.092Z,2.40
2019-05-29T17:08:31.413Z,2.10
2019-05-29T17:10:58.679Z,1.93
2019-05-29T17:13:25.953Z,2.40
2019-05-29T17:15:53.413Z,2.70
2019-05-29T17:18:20.823Z,1.70
2019-05-29T17:20:48.168Z,2.20
2019-05-29T17:23:17.003Z,2.67
2019-05-29T17:25:44.546Z,2.20
2019-05-29T17:28:11.957Z,2.00
2019-05-29T17:30:39.257Z,1.80
2019-05-29T17:33:06.587Z,2.10
2019-05-29T17:35:33.859Z,1.90
2019-05-29T17:38:01.309Z,2.17
2019-05-29T17:40:28.653Z,2.00
2019-05-29T17:42:55.927Z,1.90
2019-05-29T17:45:25.759Z,1.83
2019-05-29T17:47:52.390Z,1.90
2019-05-29T17:50:21.775Z,2.00
2019-05-29T17:52:48.929Z,2.20
2019-05-29T17:55:19.981Z,1.80
2019-05-29T17:57:45.305Z,2.43
2019-05-29T18:00:15.932Z,2.30
2019-05-29T18:02:51.887Z,2.60
2019-05-29T18:05:13.213Z,2.47
2019-05-29T18:07:40.552Z,2.90
2019-05-29T18:10:08.929Z,2.70
2019-05-29T18:12:36.271Z,2.47
2019-05-29T18:15:05.444Z,2.50
2019-05-29T18:17:32.764Z,2.70
2019-05-29T18:20:00.031Z,2.87
2019-05-29T18:22:27.802Z,2.47
2019-05-29T18:24:55.280Z,2.50
2019-05-29T18:27:23.863Z,2.30
2019-05-29T18:29:51.292Z,3.30
2019-05-29T18:32:20.356Z,2.73
2019-05-29T18:34:51.661Z,2.40
2019-05-29T18:37:16.685Z,2.70
2019-05-29T18:39:43.968Z,2.50
2019-05-29T18:42:11.236Z,2.37
2019-05-29T18:44:38.512Z,2.20
2019-05-29T18:47:05.861Z,2.37
2019-05-29T18:49:33.137Z,3.17
2019-05-29T18:52:00.888Z,2.40
2019-05-29T18:54:28.304Z,2.00
2019-05-29T18:57:13.579Z,2.50
2019-05-29T18:59:25.461Z,2.33
2019-05-29T19:01:52.914Z,2.00
2019-05-29T19:04:21.410Z,2.47
2019-05-29T19:06:49.219Z,2.00
2019-05-29T19:09:16.541Z,2.50
2019-05-29T19:11:43.812Z,2.10
2019-05-29T19:14:11.094Z,2.57
2019-05-29T19:16:39.629Z,2.67
2019-05-29T19:19:07.141Z,2.43
2019-05-29T19:21:34.482Z,2.63
2019-05-29T19:24:01.758Z,2.50
2019-05-29T19:26:29.048Z,2.30
2019-05-29T19:28:56.548Z,2.53
2019-05-29T19:31:24.918Z,2.07
2019-05-29T19:33:52.378Z,2.30
2019-05-29T19:36:19.765Z,2.00
2019-05-29T19:38:47.069Z,1.60
2019-05-29T19:41:14.337Z,1.83
2019-05-29T19:43:41.650Z,1.73
2019-05-29T19:46:08.928Z,2.37
2019-05-29T19:48:36.285Z,2.27
2019-05-29T19:51:03.731Z,2.43
2019-05-29T19:53:31.489Z,2.50
2019-05-29T19:55:58.867Z,2.10
2019-05-29T19:58:26.168Z,2.70
2019-05-29T20:00:53.453Z,2.37
2019-05-29T20:03:20.788Z,1.73
2019-05-29T20:05:48.092Z,2.10
2019-05-29T20:08:15.385Z,2.30
2019-05-29T20:10:42.846Z,2.40
2019-05-29T20:13:10.166Z,2.30
2019-05-29T20:15:38.130Z,2.30
2019-05-29T20:18:05.614Z,2.70
2019-05-29T20:20:32.960Z,2.27
2019-05-29T20:23:00.235Z,2.40
2019-05-29T20:25:28.745Z,2.50
2019-05-29T20:28:05.958Z,2.20
2019-05-29T20:30:25.354Z,2.43
2019-05-29T20:32:52.621Z,2.17
2019-05-29T20:35:19.928Z,2.23
2019-05-29T20:37:47.229Z,3.00
2019-05-29T20:40:14.660Z,2.10
2019-05-29T20:42:42.541Z,2.47
2019-05-29T20:45:10.055Z,2.27
2019-05-29T20:47:37.988Z,2.67
2019-05-29T20:50:05.647Z,2.33
2019-05-29T20:52:33.224Z,2.57
2019-05-29T20:55:00.574Z,2.60
2019-05-29T20:57:27.881Z,2.17
2019-05-29T20:59:55.161Z,2.30
2019-05-29T21:02:22.420Z,1.97
2019-05-29T21:04:49.734Z,2.23
2019-05-29T21:07:17.078Z,2.10
2019-05-29T21:09:44.413Z,1.90
2019-05-29T21:12:11.722Z,1.57
2019-05-29T21:14:39.689Z,1.90
2019-05-29T21:17:07.150Z,1.83
2019-05-29T21:19:34.512Z,2.50
2019-05-29T21:22:01.876Z,1.90
2019-05-29T21:24:29.306Z,2.23
2019-05-29T21:26:56.891Z,1.80
2019-05-29T21:29:24.228Z,1.80
2019-05-29T21:31:51.573Z,1.83
2019-05-29T21:34:19.084Z,1.90
2019-05-29T21:36:46.487Z,1.80
2019-05-29T21:39:13.881Z,1.70
2019-05-29T21:41:42.473Z,1.97
2019-05-29T21:44:09.986Z,1.83
2019-05-29T21:46:37.379Z,2.17
2019-05-29T21:49:04.712Z,2.17
2019-05-29T21:51:32.018Z,1.97
2019-05-29T21:53:59.373Z,1.63
2019-05-29T21:56:26.635Z,2.00
2019-05-29T21:59:03.432Z,1.93
2019-05-29T22:01:22.996Z,2.10
2019-05-29T22:03:50.267Z,2.07
2019-05-29T22:06:17.609Z,2.23
2019-05-29T22:08:45.049Z,2.10
2019-05-29T22:11:12.449Z,1.83
2019-05-29T22:13:39.841Z,2.37
2019-05-29T22:16:07.176Z,2.37
2019-05-29T22:18:34.440Z,1.83
2019-05-29T22:21:01.782Z,2.00
2019-05-29T22:23:29.104Z,1.60
2019-05-29T22:25:57.391Z,1.83
2019-05-29T22:28:24.944Z,2.10
2019-05-29T22:30:53.246Z,1.50
2019-05-29T22:33:20.751Z,2.10
2019-05-29T22:35:48.266Z,1.83
2019-05-29T22:38:15.537Z,1.90
2019-05-29T22:40:42.803Z,2.70
2019-05-29T22:43:10.140Z,2.63
2019-05-29T22:45:37.407Z,2.13
2019-05-29T22:48:04.813Z,2.00
2019-05-29T22:50:33.101Z,1.47
2019-05-29T22:53:00.487Z,1.70
2019-05-29T22:55:27.864Z,2.00
2019-05-29T22:57:55.939Z,1.70
2019-05-29T23:00:24.069Z,1.90
2019-05-29T23:02:51.897Z,1.60
2019-05-29T23:05:19.388Z,1.50
2019-05-29T23:07:46.657Z,2.10
2019-05-29T23:10:14.313Z,1.37
2019-05-29T23:12:41.586Z,2.30
2019-05-29T23:15:09.017Z,1.63
2019-05-29T23:17:36.449Z,1.43
2019-05-29T23:20:05.489Z,1.83
2019-05-29T23:22:32.755Z,1.70
2019-05-29T23:25:00.924Z,1.47
2019-05-29T23:27:28.373Z,2.07
2019-05-29T23:29:56.779Z,1.97
2019-05-29T23:32:24.231Z,1.50
2019-05-29T23:34:52.857Z,1.63
2019-05-29T23:37:20.465Z,1.50
2019-05-29T23:39:47.737Z,2.37
2019-05-29T23:42:15.013Z,1.77
2019-05-29T23:44:42.294Z,1.50
2019-05-29T23:47:09.649Z,1.53
2019-05-29T23:49:36.909Z,2.03
2019-05-29T23:52:05.030Z,2.27
2019-05-29T23:54:32.501Z,1.67
2019-05-29T23:57:00.027Z,2.83
2019-05-29T23:59:27.320Z,1.63
